Terminal Aerodrome Forecast
Issued by NWS

Home | Current Version | Previous Version | Text Only | Print | Product List | Glossary On
Versions: 1 2 3 4 5 6 7 8 9 10 11 12 13 14
067
FTUS44 KEPZ 162320
TAFTCS
TAF
KTCS 162320Z 1700/1724 19007KT P6SM SKC
     FM170800 33006KT P6SM FEW250
     FM171800 15006KT P6SM FEW250=

USA.gov is the U.S. government's official web portal to all federal, state and local government web resources and services.